sensor_id;sensor_type;location;lat;lon;timestamp;temperature;humidity
64888;DHT22;51386;53.082;8.816;2024-03-02T00:01:53;9.70;92.40
64888;DHT22;51386;53.082;8.816;2024-03-02T00:04:22;9.70;92.40
64888;DHT22;51386;53.082;8.816;2024-03-02T00:06:53;9.70;92.40
64888;DHT22;51386;53.082;8.816;2024-03-02T00:09:25;9.60;92.40
64888;DHT22;51386;53.082;8.816;2024-03-02T00:11:53;9.60;92.40
64888;DHT22;51386;53.082;8.816;2024-03-02T00:14:21;9.60;92.50
64888;DHT22;51386;53.082;8.816;2024-03-02T00:17:04;9.60;92.50
64888;DHT22;51386;53.082;8.816;2024-03-02T00:19:32;9.60;92.50
64888;DHT22;51386;53.082;8.816;2024-03-02T00:22:01;9.50;92.50
64888;DHT22;51386;53.082;8.816;2024-03-02T00:24:33;9.50;92.60
64888;DHT22;51386;53.082;8.816;2024-03-02T00:27:04;9.50;92.60
64888;DHT22;51386;53.082;8.816;2024-03-02T00:29:35;9.50;92.60
64888;DHT22;51386;53.082;8.816;2024-03-02T00:32:03;9.50;92.90
64888;DHT22;51386;53.082;8.816;2024-03-02T00:34:40;9.50;92.60
64888;DHT22;51386;53.082;8.816;2024-03-02T00:37:09;9.50;92.70
64888;DHT22;51386;53.082;8.816;2024-03-02T00:39:39;9.40;92.60
64888;DHT22;51386;53.082;8.816;2024-03-02T00:42:08;9.50;92.70
64888;DHT22;51386;53.082;8.816;2024-03-02T00:44:36;9.40;92.60
64888;DHT22;51386;53.082;8.816;2024-03-02T00:47:05;9.40;92.70
64888;DHT22;51386;53.082;8.816;2024-03-02T00:49:33;9.40;92.70
64888;DHT22;51386;53.082;8.816;2024-03-02T00:52:05;9.40;92.70
64888;DHT22;51386;53.082;8.816;2024-03-02T00:54:35;9.40;92.70
64888;DHT22;51386;53.082;8.816;2024-03-02T00:57:04;9.30;92.70
64888;DHT22;51386;53.082;8.816;2024-03-02T00:59:32;9.30;92.70
64888;DHT22;51386;53.082;8.816;2024-03-02T01:02:01;9.30;92.70
64888;DHT22;51386;53.082;8.816;2024-03-02T01:04:29;9.30;92.80
64888;DHT22;51386;53.082;8.816;2024-03-02T01:06:57;9.30;92.80
64888;DHT22;51386;53.082;8.816;2024-03-02T01:09:26;9.30;92.70
64888;DHT22;51386;53.082;8.816;2024-03-02T01:11:55;9.20;93.10
64888;DHT22;51386;53.082;8.816;2024-03-02T01:14:23;9.20;92.80
64888;DHT22;51386;53.082;8.816;2024-03-02T01:16:52;9.20;92.80
64888;DHT22;51386;53.082;8.816;2024-03-02T01:19:20;9.20;92.80
64888;DHT22;51386;53.082;8.816;2024-03-02T01:21:49;9.20;92.80
64888;DHT22;51386;53.082;8.816;2024-03-02T01:24:18;9.20;92.80
64888;DHT22;51386;53.082;8.816;2024-03-02T01:26:46;9.20;92.80
64888;DHT22;51386;53.082;8.816;2024-03-02T01:29:15;9.20;92.80
64888;DHT22;51386;53.082;8.816;2024-03-02T01:31:43;9.10;92.80
64888;DHT22;51386;53.082;8.816;2024-03-02T01:34:12;9.10;92.70
64888;DHT22;51386;53.082;8.816;2024-03-02T01:36:40;9.10;92.70
64888;DHT22;51386;53.082;8.816;2024-03-02T01:39:09;9.10;92.70
64888;DHT22;51386;53.082;8.816;2024-03-02T01:41:37;9.10;92.70
64888;DHT22;51386;53.082;8.816;2024-03-02T01:44:06;9.00;92.70
64888;DHT22;51386;53.082;8.816;2024-03-02T01:46:34;9.10;92.70
64888;DHT22;51386;53.082;8.816;2024-03-02T01:49:03;9.00;92.70
64888;DHT22;51386;53.082;8.816;2024-03-02T01:51:32;9.00;92.70
64888;DHT22;51386;53.082;8.816;2024-03-02T01:54:01;9.00;92.70
64888;DHT22;51386;53.082;8.816;2024-03-02T01:56:29;9.00;92.70
64888;DHT22;51386;53.082;8.816;2024-03-02T01:58:58;9.00;92.70
64888;DHT22;51386;53.082;8.816;2024-03-02T02:01:26;9.00;92.70
64888;DHT22;51386;53.082;8.816;2024-03-02T02:03:55;9.00;92.70
64888;DHT22;51386;53.082;8.816;2024-03-02T02:06:23;8.90;92.70
64888;DHT22;51386;53.082;8.816;2024-03-02T02:08:52;8.90;92.70
64888;DHT22;51386;53.082;8.816;2024-03-02T02:11:20;8.90;92.60
64888;DHT22;51386;53.082;8.816;2024-03-02T02:13:48;8.90;92.70
64888;DHT22;51386;53.082;8.816;2024-03-02T02:16:17;8.90;92.70
64888;DHT22;51386;53.082;8.816;2024-03-02T02:18:45;8.90;92.70
64888;DHT22;51386;53.082;8.816;2024-03-02T02:21:13;8.90;92.70
64888;DHT22;51386;53.082;8.816;2024-03-02T02:23:42;8.90;92.70
64888;DHT22;51386;53.082;8.816;2024-03-02T02:26:14;8.90;92.70
64888;DHT22;51386;53.082;8.816;2024-03-02T02:28:42;8.90;92.70
64888;DHT22;51386;53.082;8.816;2024-03-02T02:31:14;8.90;92.60
64888;DHT22;51386;53.082;8.816;2024-03-02T02:33:43;8.90;92.70
64888;DHT22;51386;53.082;8.816;2024-03-02T02:36:11;8.80;92.70
64888;DHT22;51386;53.082;8.816;2024-03-02T02:38:44;8.80;92.70
64888;DHT22;51386;53.082;8.816;2024-03-02T02:41:15;8.80;92.70
64888;DHT22;51386;53.082;8.816;2024-03-02T02:43:44;8.80;92.80
64888;DHT22;51386;53.082;8.816;2024-03-02T02:46:12;8.80;92.90
64888;DHT22;51386;53.082;8.816;2024-03-02T02:48:40;8.80;92.90
64888;DHT22;51386;53.082;8.816;2024-03-02T02:51:09;8.80;92.90
64888;DHT22;51386;53.082;8.816;2024-03-02T02:53:37;8.70;92.90
64888;DHT22;51386;53.082;8.816;2024-03-02T02:56:08;8.70;93.00
64888;DHT22;51386;53.082;8.816;2024-03-02T02:58:37;8.70;93.10
64888;DHT22;51386;53.082;8.816;2024-03-02T03:01:05;8.70;93.00
64888;DHT22;51386;53.082;8.816;2024-03-02T03:03:34;8.70;93.20
64888;DHT22;51386;53.082;8.816;2024-03-02T03:06:02;8.70;93.30
64888;DHT22;51386;53.082;8.816;2024-03-02T03:08:31;8.70;93.40
64888;DHT22;51386;53.082;8.816;2024-03-02T03:10:59;8.70;93.50
64888;DHT22;51386;53.082;8.816;2024-03-02T03:13:27;8.60;93.60
64888;DHT22;51386;53.082;8.816;2024-03-02T03:15:56;8.60;93.60
64888;DHT22;51386;53.082;8.816;2024-03-02T03:18:24;8.60;93.70
64888;DHT22;51386;53.082;8.816;2024-03-02T03:20:53;8.60;93.70
64888;DHT22;51386;53.082;8.816;2024-03-02T03:23:21;8.60;93.80
64888;DHT22;51386;53.082;8.816;2024-03-02T03:25:50;8.60;93.80
64888;DHT22;51386;53.082;8.816;2024-03-02T03:28:18;8.60;93.90
64888;DHT22;51386;53.082;8.816;2024-03-02T03:30:47;8.50;93.80
64888;DHT22;51386;53.082;8.816;2024-03-02T03:33:15;8.50;93.90
64888;DHT22;51386;53.082;8.816;2024-03-02T03:35:43;8.50;94.00
64888;DHT22;51386;53.082;8.816;2024-03-02T03:38:12;8.50;94.00
64888;DHT22;51386;53.082;8.816;2024-03-02T03:40:40;8.50;94.00
64888;DHT22;51386;53.082;8.816;2024-03-02T03:43:09;8.50;94.00
64888;DHT22;51386;53.082;8.816;2024-03-02T03:45:37;8.50;94.00
64888;DHT22;51386;53.082;8.816;2024-03-02T03:48:06;8.50;94.00
64888;DHT22;51386;53.082;8.816;2024-03-02T03:50:34;8.50;94.00
64888;DHT22;51386;53.082;8.816;2024-03-02T03:53:02;8.50;94.10
64888;DHT22;51386;53.082;8.816;2024-03-02T03:55:31;8.50;94.00
64888;DHT22;51386;53.082;8.816;2024-03-02T03:57:59;8.50;94.10
64888;DHT22;51386;53.082;8.816;2024-03-02T04:00:28;8.50;94.10
64888;DHT22;51386;53.082;8.816;2024-03-02T04:02:56;8.40;94.10
64888;DHT22;51386;53.082;8.816;2024-03-02T04:05:25;8.40;94.10
64888;DHT22;51386;53.082;8.816;2024-03-02T04:07:53;8.40;94.10
64888;DHT22;51386;53.082;8.816;2024-03-02T04:10:22;8.50;94.20
64888;DHT22;51386;53.082;8.816;2024-03-02T04:12:50;8.40;94.10
64888;DHT22;51386;53.082;8.816;2024-03-02T04:15:18;8.40;94.10
64888;DHT22;51386;53.082;8.816;2024-03-02T04:17:47;8.50;94.50
64888;DHT22;51386;53.082;8.816;2024-03-02T04:20:16;8.40;94.10
64888;DHT22;51386;53.082;8.816;2024-03-02T04:22:44;8.40;94.10
64888;DHT22;51386;53.082;8.816;2024-03-02T04:25:12;8.40;94.20
64888;DHT22;51386;53.082;8.816;2024-03-02T04:27:41;8.40;94.10
64888;DHT22;51386;53.082;8.816;2024-03-02T04:30:10;8.40;94.10
64888;DHT22;51386;53.082;8.816;2024-03-02T04:32:38;8.40;94.10
64888;DHT22;51386;53.082;8.816;2024-03-02T04:35:07;8.50;94.10
64888;DHT22;51386;53.082;8.816;2024-03-02T04:37:38;8.40;94.10
64888;DHT22;51386;53.082;8.816;2024-03-02T04:40:07;8.40;94.40
64888;DHT22;51386;53.082;8.816;2024-03-02T04:42:36;8.40;94.00
64888;DHT22;51386;53.082;8.816;2024-03-02T04:45:05;8.40;94.00
64888;DHT22;51386;53.082;8.816;2024-03-02T04:47:35;8.40;94.00
64888;DHT22;51386;53.082;8.816;2024-03-02T04:50:03;8.40;93.90
64888;DHT22;51386;53.082;8.816;2024-03-02T04:52:32;8.40;93.90
64888;DHT22;51386;53.082;8.816;2024-03-02T04:55:01;8.40;94.00
64888;DHT22;51386;53.082;8.816;2024-03-02T04:57:52;8.40;94.00
64888;DHT22;51386;53.082;8.816;2024-03-02T05:00:23;8.40;94.30
64888;DHT22;51386;53.082;8.816;2024-03-02T05:02:51;8.40;94.00
64888;DHT22;51386;53.082;8.816;2024-03-02T05:05:19;8.40;94.00
64888;DHT22;51386;53.082;8.816;2024-03-02T05:07:48;8.40;93.90
64888;DHT22;51386;53.082;8.816;2024-03-02T05:10:16;8.40;93.90
64888;DHT22;51386;53.082;8.816;2024-03-02T05:12:45;8.40;94.00
64888;DHT22;51386;53.082;8.816;2024-03-02T05:15:14;8.40;94.00
64888;DHT22;51386;53.082;8.816;2024-03-02T05:17:43;8.30;93.90
64888;DHT22;51386;53.082;8.816;2024-03-02T05:20:11;8.30;93.90
64888;DHT22;51386;53.082;8.816;2024-03-02T05:22:40;8.40;93.90
64888;DHT22;51386;53.082;8.816;2024-03-02T05:25:08;8.30;93.90
64888;DHT22;51386;53.082;8.816;2024-03-02T05:27:39;8.40;93.90
64888;DHT22;51386;53.082;8.816;2024-03-02T05:30:08;8.30;93.90
64888;DHT22;51386;53.082;8.816;2024-03-02T05:32:37;8.30;93.90
64888;DHT22;51386;53.082;8.816;2024-03-02T05:35:06;8.30;94.00
64888;DHT22;51386;53.082;8.816;2024-03-02T05:37:35;8.30;94.00
64888;DHT22;51386;53.082;8.816;2024-03-02T05:40:04;8.30;94.00
64888;DHT22;51386;53.082;8.816;2024-03-02T05:42:34;8.30;94.00
64888;DHT22;51386;53.082;8.816;2024-03-02T05:45:03;8.30;94.00
64888;DHT22;51386;53.082;8.816;2024-03-02T05:47:32;8.30;94.00
64888;DHT22;51386;53.082;8.816;2024-03-02T05:50:01;8.30;94.00
64888;DHT22;51386;53.082;8.816;2024-03-02T05:52:31;8.30;94.00
64888;DHT22;51386;53.082;8.816;2024-03-02T05:55:00;8.30;94.10
64888;DHT22;51386;53.082;8.816;2024-03-02T05:57:28;8.30;94.00
64888;DHT22;51386;53.082;8.816;2024-03-02T06:00:13;8.30;94.10
64888;DHT22;51386;53.082;8.816;2024-03-02T06:02:45;8.20;94.10
64888;DHT22;51386;53.082;8.816;2024-03-02T06:05:14;8.20;94.10
64888;DHT22;51386;53.082;8.816;2024-03-02T06:07:43;8.20;94.10
64888;DHT22;51386;53.082;8.816;2024-03-02T06:10:11;8.30;94.20
64888;DHT22;51386;53.082;8.816;2024-03-02T06:12:40;8.20;94.20
64888;DHT22;51386;53.082;8.816;2024-03-02T06:15:09;8.20;94.20
64888;DHT22;51386;53.082;8.816;2024-03-02T06:17:38;8.20;94.20
64888;DHT22;51386;53.082;8.816;2024-03-02T06:20:07;8.20;94.20
64888;DHT22;51386;53.082;8.816;2024-03-02T06:22:36;8.20;94.20
64888;DHT22;51386;53.082;8.816;2024-03-02T06:25:05;8.20;94.60
64888;DHT22;51386;53.082;8.816;2024-03-02T06:27:34;8.20;94.30
64888;DHT22;51386;53.082;8.816;2024-03-02T06:30:03;8.20;94.30
64888;DHT22;51386;53.082;8.816;2024-03-02T06:32:32;8.20;94.30
64888;DHT22;51386;53.082;8.816;2024-03-02T06:35:01;8.20;94.20
64888;DHT22;51386;53.082;8.816;2024-03-02T06:37:29;8.20;94.30
64888;DHT22;51386;53.082;8.816;2024-03-02T06:39:57;8.20;94.30
64888;DHT22;51386;53.082;8.816;2024-03-02T06:42:26;8.20;94.40
64888;DHT22;51386;53.082;8.816;2024-03-02T06:44:54;8.20;94.40
64888;DHT22;51386;53.082;8.816;2024-03-02T06:47:23;8.20;94.40
64888;DHT22;51386;53.082;8.816;2024-03-02T06:49:52;8.30;94.40
64888;DHT22;51386;53.082;8.816;2024-03-02T06:52:21;8.30;94.40
64888;DHT22;51386;53.082;8.816;2024-03-02T06:54:51;8.30;94.40
64888;DHT22;51386;53.082;8.816;2024-03-02T06:57:19;8.40;94.40
64888;DHT22;51386;53.082;8.816;2024-03-02T06:59:48;8.30;94.40
64888;DHT22;51386;53.082;8.816;2024-03-02T07:02:19;8.40;94.40
64888;DHT22;51386;53.082;8.816;2024-03-02T07:04:47;8.40;94.40
64888;DHT22;51386;53.082;8.816;2024-03-02T07:07:16;8.40;94.30
64888;DHT22;51386;53.082;8.816;2024-03-02T07:09:45;8.50;94.30
64888;DHT22;51386;53.082;8.816;2024-03-02T07:12:14;8.50;94.30
64888;DHT22;51386;53.082;8.816;2024-03-02T07:14:42;8.60;94.30
64888;DHT22;51386;53.082;8.816;2024-03-02T07:17:31;8.60;94.30
64888;DHT22;51386;53.082;8.816;2024-03-02T07:20:00;8.70;94.20
64888;DHT22;51386;53.082;8.816;2024-03-02T07:22:28;8.70;94.20
64888;DHT22;51386;53.082;8.816;2024-03-02T07:24:56;8.80;94.10
64888;DHT22;51386;53.082;8.816;2024-03-02T07:27:25;8.90;94.20
64888;DHT22;51386;53.082;8.816;2024-03-02T07:29:53;9.00;94.00
64888;DHT22;51386;53.082;8.816;2024-03-02T07:32:22;9.00;94.00
64888;DHT22;51386;53.082;8.816;2024-03-02T07:34:50;9.10;93.70
64888;DHT22;51386;53.082;8.816;2024-03-02T07:37:18;9.20;93.60
64888;DHT22;51386;53.082;8.816;2024-03-02T07:39:48;9.30;93.50
64888;DHT22;51386;53.082;8.816;2024-03-02T07:42:17;9.30;93.40
64888;DHT22;51386;53.082;8.816;2024-03-02T07:44:45;9.30;93.50
64888;DHT22;51386;53.082;8.816;2024-03-02T07:47:13;9.40;93.50
64888;DHT22;51386;53.082;8.816;2024-03-02T07:49:44;9.50;93.30
64888;DHT22;51386;53.082;8.816;2024-03-02T07:52:13;9.50;93.20
64888;DHT22;51386;53.082;8.816;2024-03-02T07:54:41;9.50;93.20
64888;DHT22;51386;53.082;8.816;2024-03-02T07:57:10;9.60;93.10
64888;DHT22;51386;53.082;8.816;2024-03-02T07:59:38;9.60;93.00
64888;DHT22;51386;53.082;8.816;2024-03-02T08:02:07;9.60;92.90
64888;DHT22;51386;53.082;8.816;2024-03-02T08:04:35;9.60;92.90
64888;DHT22;51386;53.082;8.816;2024-03-02T08:07:04;9.60;92.80
64888;DHT22;51386;53.082;8.816;2024-03-02T08:09:34;9.60;92.80
64888;DHT22;51386;53.082;8.816;2024-03-02T08:12:02;9.70;92.90
64888;DHT22;51386;53.082;8.816;2024-03-02T08:14:31;9.70;92.80
64888;DHT22;51386;53.082;8.816;2024-03-02T08:16:59;9.70;92.90
64888;DHT22;51386;53.082;8.816;2024-03-02T08:19:29;9.70;92.80
64888;DHT22;51386;53.082;8.816;2024-03-02T08:21:57;9.80;92.80
64888;DHT22;51386;53.082;8.816;2024-03-02T08:24:27;9.80;92.70
64888;DHT22;51386;53.082;8.816;2024-03-02T08:26:56;9.80;92.70
64888;DHT22;51386;53.082;8.816;2024-03-02T08:29:24;9.90;92.70
64888;DHT22;51386;53.082;8.816;2024-03-02T08:31:53;9.90;92.70
64888;DHT22;51386;53.082;8.816;2024-03-02T08:34:22;9.90;92.60
64888;DHT22;51386;53.082;8.816;2024-03-02T08:36:50;10.00;92.10
64888;DHT22;51386;53.082;8.816;2024-03-02T08:39:19;10.00;92.10
64888;DHT22;51386;53.082;8.816;2024-03-02T08:41:48;10.10;92.10
64888;DHT22;51386;53.082;8.816;2024-03-02T08:44:17;10.10;92.10
64888;DHT22;51386;53.082;8.816;2024-03-02T08:46:45;10.20;92.20
64888;DHT22;51386;53.082;8.816;2024-03-02T08:49:14;10.30;92.30
64888;DHT22;51386;53.082;8.816;2024-03-02T08:51:42;10.40;92.10
64888;DHT22;51386;53.082;8.816;2024-03-02T08:54:11;10.60;92.50
64888;DHT22;51386;53.082;8.816;2024-03-02T08:56:39;10.90;92.40
64888;DHT22;51386;53.082;8.816;2024-03-02T08:59:07;11.20;92.00
64888;DHT22;51386;53.082;8.816;2024-03-02T09:01:36;11.50;91.80
64888;DHT22;51386;53.082;8.816;2024-03-02T09:04:09;11.80;91.70
64888;DHT22;51386;53.082;8.816;2024-03-02T09:06:38;12.20;91.10
64888;DHT22;51386;53.082;8.816;2024-03-02T09:09:06;12.60;90.70
64888;DHT22;51386;53.082;8.816;2024-03-02T09:11:34;12.90;89.40
64888;DHT22;51386;53.082;8.816;2024-03-02T09:14:03;13.30;88.40
64888;DHT22;51386;53.082;8.816;2024-03-02T09:16:33;13.60;85.40
64888;DHT22;51386;53.082;8.816;2024-03-02T09:19:01;13.80;83.70
64888;DHT22;51386;53.082;8.816;2024-03-02T09:21:29;14.00;81.80
64888;DHT22;51386;53.082;8.816;2024-03-02T09:23:58;14.30;82.70
64888;DHT22;51386;53.082;8.816;2024-03-02T09:26:27;14.50;82.30
64888;DHT22;51386;53.082;8.816;2024-03-02T09:28:55;14.80;82.60
64888;DHT22;51386;53.082;8.816;2024-03-02T09:31:23;15.00;81.70
64888;DHT22;51386;53.082;8.816;2024-03-02T09:33:52;15.30;79.80
64888;DHT22;51386;53.082;8.816;2024-03-02T09:36:22;15.50;77.90
64888;DHT22;51386;53.082;8.816;2024-03-02T09:38:50;15.60;75.90
64888;DHT22;51386;53.082;8.816;2024-03-02T09:41:19;15.80;76.00
64888;DHT22;51386;53.082;8.816;2024-03-02T09:43:48;15.80;74.10
64888;DHT22;51386;53.082;8.816;2024-03-02T09:46:18;15.80;75.60
64888;DHT22;51386;53.082;8.816;2024-03-02T09:48:47;15.90;75.40
64888;DHT22;51386;53.082;8.816;2024-03-02T09:51:16;16.00;75.70
64888;DHT22;51386;53.082;8.816;2024-03-02T09:53:47;16.20;73.90
64888;DHT22;51386;53.082;8.816;2024-03-02T09:56:16;16.30;71.50
64888;DHT22;51386;53.082;8.816;2024-03-02T09:58:46;16.40;73.10
64888;DHT22;51386;53.082;8.816;2024-03-02T10:01:14;16.60;72.30
64888;DHT22;51386;53.082;8.816;2024-03-02T10:03:44;16.80;71.90
64888;DHT22;51386;53.082;8.816;2024-03-02T10:06:25;17.10;71.00
64888;DHT22;51386;53.082;8.816;2024-03-02T10:08:55;17.40;68.80
64888;DHT22;51386;53.082;8.816;2024-03-02T10:11:28;17.90;69.50
64888;DHT22;51386;53.082;8.816;2024-03-02T10:14:12;18.30;67.90
64888;DHT22;51386;53.082;8.816;2024-03-02T10:16:43;18.80;64.30
64888;DHT22;51386;53.082;8.816;2024-03-02T10:19:16;19.20;65.20
64888;DHT22;51386;53.082;8.816;2024-03-02T10:21:53;19.70;63.10
64888;DHT22;51386;53.082;8.816;2024-03-02T10:24:22;20.20;61.60
64888;DHT22;51386;53.082;8.816;2024-03-02T10:26:51;20.60;59.50
64888;DHT22;51386;53.082;8.816;2024-03-02T10:29:21;21.00;58.40
64888;DHT22;51386;53.082;8.816;2024-03-02T10:31:49;21.40;58.70
64888;DHT22;51386;53.082;8.816;2024-03-02T10:34:18;21.80;56.40
64888;DHT22;51386;53.082;8.816;2024-03-02T10:36:47;22.10;53.50
64888;DHT22;51386;53.082;8.816;2024-03-02T10:39:17;22.40;54.30
64888;DHT22;51386;53.082;8.816;2024-03-02T10:41:45;22.80;52.80
64888;DHT22;51386;53.082;8.816;2024-03-02T10:44:18;23.00;49.30
64888;DHT22;51386;53.082;8.816;2024-03-02T10:46:47;23.10;47.90
64888;DHT22;51386;53.082;8.816;2024-03-02T10:49:19;23.10;46.60
64888;DHT22;51386;53.082;8.816;2024-03-02T10:51:49;23.10;47.20
64888;DHT22;51386;53.082;8.816;2024-03-02T10:54:18;23.10;47.90
64888;DHT22;51386;53.082;8.816;2024-03-02T10:56:47;23.00;46.60
64888;DHT22;51386;53.082;8.816;2024-03-02T10:59:32;23.10;46.90
64888;DHT22;51386;53.082;8.816;2024-03-02T11:02:03;23.00;45.40
64888;DHT22;51386;53.082;8.816;2024-03-02T11:04:35;22.90;45.30
64888;DHT22;51386;53.082;8.816;2024-03-02T11:07:08;22.70;45.60
64888;DHT22;51386;53.082;8.816;2024-03-02T11:09:45;22.70;46.50
64888;DHT22;51386;53.082;8.816;2024-03-02T11:15:17;22.50;46.00
64888;DHT22;51386;53.082;8.816;2024-03-02T11:17:49;22.50;46.40
64888;DHT22;51386;53.082;8.816;2024-03-02T11:20:18;22.50;46.00
64888;DHT22;51386;53.082;8.816;2024-03-02T11:22:48;22.50;46.70
64888;DHT22;51386;53.082;8.816;2024-03-02T11:25:27;22.60;47.20
64888;DHT22;51386;53.082;8.816;2024-03-02T11:30:49;22.90;44.50
64888;DHT22;51386;53.082;8.816;2024-03-02T11:33:23;22.90;44.10
64888;DHT22;51386;53.082;8.816;2024-03-02T11:35:53;23.00;45.10
64888;DHT22;51386;53.082;8.816;2024-03-02T11:38:27;23.00;45.20
64888;DHT22;51386;53.082;8.816;2024-03-02T11:40:57;23.10;44.30
64888;DHT22;51386;53.082;8.816;2024-03-02T11:43:30;23.30;43.70
64888;DHT22;51386;53.082;8.816;2024-03-02T11:46:01;23.40;43.70
64888;DHT22;51386;53.082;8.816;2024-03-02T11:48:36;23.50;43.70
64888;DHT22;51386;53.082;8.816;2024-03-02T11:51:05;23.60;43.90
64888;DHT22;51386;53.082;8.816;2024-03-02T11:53:35;23.70;42.20
64888;DHT22;51386;53.082;8.816;2024-03-02T11:56:09;23.80;41.60
64888;DHT22;51386;53.082;8.816;2024-03-02T11:58:39;23.70;42.40
64888;DHT22;51386;53.082;8.816;2024-03-02T12:01:10;23.70;42.30
64888;DHT22;51386;53.082;8.816;2024-03-02T12:03:39;23.60;42.20
64888;DHT22;51386;53.082;8.816;2024-03-02T12:06:07;23.60;42.70
64888;DHT22;51386;53.082;8.816;2024-03-02T12:08:38;23.40;41.30
64888;DHT22;51386;53.082;8.816;2024-03-02T12:11:06;23.30;42.10
64888;DHT22;51386;53.082;8.816;2024-03-02T12:13:35;23.10;42.10
64888;DHT22;51386;53.082;8.816;2024-03-02T12:16:03;22.90;41.60
64888;DHT22;51386;53.082;8.816;2024-03-02T12:18:33;22.70;42.40
64888;DHT22;51386;53.082;8.816;2024-03-02T12:21:01;22.50;42.40
64888;DHT22;51386;53.082;8.816;2024-03-02T12:23:31;22.30;42.70
64888;DHT22;51386;53.082;8.816;2024-03-02T12:26:00;22.30;43.30
64888;DHT22;51386;53.082;8.816;2024-03-02T12:28:29;22.10;43.30
64888;DHT22;51386;53.082;8.816;2024-03-02T12:30:59;22.00;43.70
64888;DHT22;51386;53.082;8.816;2024-03-02T12:33:27;21.80;44.00
64888;DHT22;51386;53.082;8.816;2024-03-02T12:35:57;21.70;44.10
64888;DHT22;51386;53.082;8.816;2024-03-02T12:38:26;21.60;44.60
64888;DHT22;51386;53.082;8.816;2024-03-02T12:40:55;21.70;44.90
64888;DHT22;51386;53.082;8.816;2024-03-02T12:43:24;21.70;44.60
64888;DHT22;51386;53.082;8.816;2024-03-02T12:45:53;21.90;45.20
64888;DHT22;51386;53.082;8.816;2024-03-02T12:48:24;22.00;44.80
64888;DHT22;51386;53.082;8.816;2024-03-02T12:50:52;22.00;44.10
64888;DHT22;51386;53.082;8.816;2024-03-02T12:53:21;22.10;44.10
64888;DHT22;51386;53.082;8.816;2024-03-02T12:55:50;22.10;43.70
64888;DHT22;51386;53.082;8.816;2024-03-02T12:58:20;22.00;43.90
64888;DHT22;51386;53.082;8.816;2024-03-02T13:00:50;22.00;43.80
64888;DHT22;51386;53.082;8.816;2024-03-02T13:03:38;22.00;44.40
64888;DHT22;51386;53.082;8.816;2024-03-02T13:06:07;22.00;44.50
64888;DHT22;51386;53.082;8.816;2024-03-02T13:08:35;22.10;44.30
64888;DHT22;51386;53.082;8.816;2024-03-02T13:11:04;22.20;44.10
64888;DHT22;51386;53.082;8.816;2024-03-02T13:13:34;22.20;43.70
64888;DHT22;51386;53.082;8.816;2024-03-02T13:16:05;22.20;43.80
64888;DHT22;51386;53.082;8.816;2024-03-02T13:18:41;22.20;44.20
64888;DHT22;51386;53.082;8.816;2024-03-02T13:21:09;22.20;44.50
64888;DHT22;51386;53.082;8.816;2024-03-02T13:23:38;22.20;44.70
64888;DHT22;51386;53.082;8.816;2024-03-02T13:26:06;22.30;44.70
64888;DHT22;51386;53.082;8.816;2024-03-02T13:28:35;22.30;44.40
64888;DHT22;51386;53.082;8.816;2024-03-02T13:31:03;22.30;44.90
64888;DHT22;51386;53.082;8.816;2024-03-02T13:33:32;22.30;44.20
64888;DHT22;51386;53.082;8.816;2024-03-02T13:36:01;22.20;44.50
64888;DHT22;51386;53.082;8.816;2024-03-02T13:38:30;22.20;45.00
64888;DHT22;51386;53.082;8.816;2024-03-02T13:40:59;22.20;45.20
64888;DHT22;51386;53.082;8.816;2024-03-02T13:43:28;22.30;44.30
64888;DHT22;51386;53.082;8.816;2024-03-02T13:46:00;22.30;44.30
64888;DHT22;51386;53.082;8.816;2024-03-02T13:48:30;22.30;44.30
64888;DHT22;51386;53.082;8.816;2024-03-02T13:50:58;22.20;44.00
64888;DHT22;51386;53.082;8.816;2024-03-02T13:53:27;21.80;44.30
64888;DHT22;51386;53.082;8.816;2024-03-02T13:55:56;21.60;44.80
64888;DHT22;51386;53.082;8.816;2024-03-02T13:58:24;21.50;45.50
64888;DHT22;51386;53.082;8.816;2024-03-02T14:00:53;21.50;45.50
64888;DHT22;51386;53.082;8.816;2024-03-02T14:03:21;21.50;45.20
64888;DHT22;51386;53.082;8.816;2024-03-02T14:05:50;21.50;45.70
64888;DHT22;51386;53.082;8.816;2024-03-02T14:08:20;21.60;45.60
64888;DHT22;51386;53.082;8.816;2024-03-02T14:10:49;21.60;45.40
64888;DHT22;51386;53.082;8.816;2024-03-02T14:13:17;21.70;45.30
64888;DHT22;51386;53.082;8.816;2024-03-02T14:15:46;21.80;45.10
64888;DHT22;51386;53.082;8.816;2024-03-02T14:18:14;21.90;45.10
64888;DHT22;51386;53.082;8.816;2024-03-02T14:20:43;22.00;44.50
64888;DHT22;51386;53.082;8.816;2024-03-02T14:23:12;22.10;44.20
64888;DHT22;51386;53.082;8.816;2024-03-02T14:25:40;22.30;43.80
64888;DHT22;51386;53.082;8.816;2024-03-02T14:28:09;22.40;43.50
64888;DHT22;51386;53.082;8.816;2024-03-02T14:30:57;22.50;43.10
64888;DHT22;51386;53.082;8.816;2024-03-02T14:33:28;22.60;42.60
64888;DHT22;51386;53.082;8.816;2024-03-02T14:35:59;22.70;43.00
64888;DHT22;51386;53.082;8.816;2024-03-02T14:38:27;22.70;42.50
64888;DHT22;51386;53.082;8.816;2024-03-02T14:40:57;22.80;42.90
64888;DHT22;51386;53.082;8.816;2024-03-02T14:43:25;22.90;42.70
64888;DHT22;51386;53.082;8.816;2024-03-02T14:45:54;22.90;42.00
64888;DHT22;51386;53.082;8.816;2024-03-02T14:48:23;22.80;41.60
64888;DHT22;51386;53.082;8.816;2024-03-02T14:50:51;22.60;42.00
64888;DHT22;51386;53.082;8.816;2024-03-02T14:53:20;22.40;42.50
64888;DHT22;51386;53.082;8.816;2024-03-02T14:55:48;22.20;43.10
64888;DHT22;51386;53.082;8.816;2024-03-02T14:58:17;22.10;43.50
64888;DHT22;51386;53.082;8.816;2024-03-02T15:00:46;22.10;44.00
64888;DHT22;51386;53.082;8.816;2024-03-02T15:03:14;22.20;44.20
64888;DHT22;51386;53.082;8.816;2024-03-02T15:05:43;22.20;43.50
64888;DHT22;51386;53.082;8.816;2024-03-02T15:08:11;22.10;42.80
64888;DHT22;51386;53.082;8.816;2024-03-02T15:10:40;21.90;42.90
64888;DHT22;51386;53.082;8.816;2024-03-02T15:13:11;21.60;43.30
64888;DHT22;51386;53.082;8.816;2024-03-02T15:15:41;21.20;43.90
64888;DHT22;51386;53.082;8.816;2024-03-02T15:18:09;20.80;44.70
64888;DHT22;51386;53.082;8.816;2024-03-02T15:20:38;20.50;45.50
64888;DHT22;51386;53.082;8.816;2024-03-02T15:23:06;20.10;46.30
64888;DHT22;51386;53.082;8.816;2024-03-02T15:25:34;19.80;46.80
64888;DHT22;51386;53.082;8.816;2024-03-02T15:28:03;19.50;47.50
64888;DHT22;51386;53.082;8.816;2024-03-02T15:30:32;19.30;47.80
64888;DHT22;51386;53.082;8.816;2024-03-02T15:33:01;19.00;48.40
64888;DHT22;51386;53.082;8.816;2024-03-02T15:35:30;18.80;48.80
64888;DHT22;51386;53.082;8.816;2024-03-02T15:37:58;18.60;49.30
64888;DHT22;51386;53.082;8.816;2024-03-02T15:40:27;18.40;49.80
64888;DHT22;51386;53.082;8.816;2024-03-02T15:42:56;18.30;50.40
64888;DHT22;51386;53.082;8.816;2024-03-02T15:45:24;18.20;51.00
64888;DHT22;51386;53.082;8.816;2024-03-02T15:48:01;18.00;51.20
64888;DHT22;51386;53.082;8.816;2024-03-02T15:50:30;17.80;51.90
64888;DHT22;51386;53.082;8.816;2024-03-02T15:53:00;17.70;52.30
64888;DHT22;51386;53.082;8.816;2024-03-02T15:55:32;17.60;53.10
64888;DHT22;51386;53.082;8.816;2024-03-02T15:58:04;17.50;53.50
64888;DHT22;51386;53.082;8.816;2024-03-02T16:00:33;17.50;54.00